Bookmark and Share
Track history (hours):
 

Serval

Last reported at 2014-Apr-12 13:25 UTC. Time now 2014-Apr-16 07:49 UTC.
Position N 54°29' E 006°13'.

Length 30 m; draft 4.9 m.

Type: Fishing. MMSI: 377103000.

NotesDate/timePositionNaut miles runAvg speedWind from/ knotsBaromVisibWave heightAir tempDewpointWater temp
2014-Apr-12 13:25N 54°29' E 006°13'2 1.8
2014-Apr-12 12:33N 54°31' E 006°13'2 0.8
2014-Apr-12 09:22N 54°28' E 006°12'55 3.9
2014-Apr-11 19:12N 53°35' E 006°37'4 5.9
2014-Apr-11 18:32N 53°33' E 006°42'5 5.2
2014-Apr-11 17:33N 53°30' E 006°48'3 3.2
2014-Apr-11 16:31N 53°27' E 006°50'0 0.0
2014-Apr-11 15:31N 53°27' E 006°50'0 0.0
2014-Apr-11 14:31N 53°27' E 006°50'0 0.0
2014-Apr-11 13:31N 53°27' E 006°50'0 0.0
2014-Apr-11 12:31N 53°27' E 006°50'0 0.0
2014-Apr-11 11:31N 53°27' E 006°50'0 0.0
2014-Apr-11 10:31N 53°27' E 006°50'0 0.0
2014-Apr-11 09:31N 53°27' E 006°50'0 0.0
2014-Apr-11 08:31N 53°27' E 006°50'0 0.0
2014-Apr-11 07:31N 53°27' E 006°50'0 0.0
2014-Apr-11 06:31N 53°27' E 006°50'0 0.0
2014-Apr-11 05:31N 53°27' E 006°50'0 0.0
2014-Apr-11 04:31N 53°27' E 006°50'0 0.0
2014-Apr-11 03:31N 53°27' E 006°50'0 0.0
2014-Apr-11 02:31N 53°27' E 006°50'0 0.0
2014-Apr-11 01:31N 53°27' E 006°50'0 0.0
2014-Apr-11 00:31N 53°27' E 006°50'0 0.0
2014-Apr-10 23:31N 53°27' E 006°50'0 0.0
2014-Apr-10 22:31N 53°27' E 006°50'0 0.0
2014-Apr-10 21:31N 53°27' E 006°50'0 0.0
2014-Apr-10 20:31N 53°27' E 006°50'0 0.0
2014-Apr-10 19:31N 53°27' E 006°50'1 1.3
2014-Apr-10 18:33N 53°28' E 006°50'  
2014-Apr-05 22:19N 54°27' E 006°16'3 0.5
2014-Apr-05 17:03N 54°27' E 006°12'1 1.9
2014-Apr-05 16:26N 54°27' E 006°14'0 0.0
2014-Apr-03 16:26N 54°27' E 006°13'0 0.4
2014-Apr-03 15:29N 54°28' E 006°13'  

Dump ship's entire track history

sailing weather and tide predictions

Serval — J8B4154 — position and weather